Flora, IL

3:23 PM CDT on September 26, 2017 (GMT -0500)
Flora Municipal

Weather History for KFOA - October, 2012

Change the Weather History Date:

Saturday, October 27, 2012

  Actual Average (KSLO) Record (KSLO)
Temperature  
Mean Temperature 46 °F -  
Max Temperature 54 °F 65 °F 84 °F (2014)
Min Temperature 37 °F 41 °F 29 °F (1967)
Degree Days  
Heating Degree Days 20    
Moisture  
Dew Point 35 °F    
Average Humidity 71    
Maximum Humidity 87    
Minimum Humidity 52    
Precipitation  
Precipitation 0.00 in - - ()
Sea Level Pressure  
Sea Level Pressure 30.22 in    
Wind  
Wind Speed 10 mph (North)    
Max Wind Speed 17 mph    
Max Gust Speed 24 mph    
Visibility 10 miles    
Events      
Averages and records for this station are not official NWS values.
T = Trace of Precipitation, MM = Missing Value Source: NWS Daily Summary

Daily Weather History Graph

Daily Weather History Graph

Search for Another Location

Airport or City:

Trip Planner

Search our weather history database for the weather conditions in past years. The results will help you decide how hot, cold, wet, or windy it might be!

Date:

Astronomy

Oct. 27, 2012 Rise Set
Actual Time 7:15 AM CDT 5:58 PM CDT
Civil Twilight 6:48 AM CDT 6:26 PM CDT
Nautical Twilight 6:17 AM CDT 6:57 PM CDT
Astronomical Twilight 5:46 AM CDT 7:28 PM CDT
Moon 4:44 PM CDT (10/27) 5:11 AM CDT (10/27)
Length of Visible Light 11h 37m
Length of Day
10h 43m
Waxing Gibbous, 96% of the Moon is Illuminated
Oct 27
Waxing Gibbous
Oct 29
Full
Nov 6
Last Quarter
Nov 13
New
Nov 20
First Quarter

Hourly Weather History & Observations

Time (CDT) Temp. Windchill Dew Point Humidity Pressure Visibility Wind Dir Wind Speed Gust Speed Precip Events Conditions
12:15 AM 41.4 °F 35.2 °F 35.2 °F 79% 30.25 in 10.0 mi North 10.4 mph - N/A   Clear
12:35 AM 41.4 °F 36.2 °F 35.1 °F 78% 30.25 in 10.0 mi North 8.1 mph - N/A   Clear
12:55 AM 41.0 °F 35.2 °F 34.9 °F 79% 30.25 in 10.0 mi North 9.2 mph - N/A   Clear
1:15 AM 40.6 °F 35.4 °F 34.9 °F 80% 30.25 in 10.0 mi North 8.1 mph - N/A   Clear
1:35 AM 40.6 °F 36.0 °F 35.1 °F 80% 30.25 in 10.0 mi North 6.9 mph - N/A   Clear
1:55 AM 39.7 °F 34.9 °F 34.7 °F 82% 30.24 in 10.0 mi North 6.9 mph - N/A   Clear
2:15 AM 39.2 °F 34.2 °F 34.3 °F 83% 30.24 in 10.0 mi NNW 6.9 mph - N/A   Clear
2:35 AM 39.2 °F 34.2 °F 34.2 °F 82% 30.24 in 10.0 mi NNW 6.9 mph - N/A   Clear
2:55 AM 38.7 °F 34.3 °F 34.5 °F 85% 30.24 in 10.0 mi NNW 5.8 mph - N/A   Clear
3:15 AM 37.4 °F 33.8 °F 33.8 °F 87% 30.24 in 10.0 mi North 4.6 mph - N/A   Clear
3:35 AM 37.8 °F 33.3 °F 34.2 °F 87% 30.24 in 10.0 mi NNW 5.8 mph - N/A   Clear
3:55 AM 37.9 °F 32.7 °F 34.0 °F 86% 30.24 in 10.0 mi NNW 6.9 mph - N/A   Clear
4:15 AM 37.9 °F 32.7 °F 34.0 °F 86% 30.24 in 10.0 mi North 6.9 mph - N/A   Clear
4:35 AM 37.9 °F 32.7 °F 33.8 °F 85% 30.24 in 10.0 mi North 6.9 mph - N/A   Clear
4:55 AM 37.8 °F 31.8 °F 33.8 °F 86% 30.23 in 10.0 mi North 8.1 mph - N/A   Clear
5:15 AM 37.6 °F 32.3 °F 33.4 °F 85% 30.23 in 10.0 mi North 6.9 mph - N/A   Clear
5:35 AM 37.9 °F 32.1 °F 33.3 °F 83% 30.23 in 10.0 mi North 8.1 mph - N/A   Clear
5:55 AM 38.1 °F 32.3 °F 32.9 °F 81% 30.23 in 10.0 mi North 8.1 mph - N/A   Clear
6:15 AM 37.4 °F 30.8 °F 32.9 °F 84% 30.23 in 10.0 mi North 9.2 mph - N/A   Clear
6:35 AM 37.4 °F 30.3 °F 32.9 °F 84% 30.23 in 10.0 mi North 10.4 mph - N/A   Clear
6:55 AM 37.0 °F 31.0 °F 32.9 °F 85% 30.24 in 10.0 mi North 8.1 mph - N/A   Clear
7:15 AM 37.0 °F 32.4 °F 32.9 °F 85% 30.24 in 10.0 mi North 5.8 mph - N/A   Clear
7:35 AM 37.2 °F 30.6 °F 32.9 °F 84% 30.25 in 10.0 mi North 9.2 mph - N/A   Clear
7:55 AM 37.9 °F 30.9 °F 32.9 °F 82% 30.25 in 10.0 mi North 10.4 mph 16.1 mph N/A   Clear
8:15 AM 39.0 °F 31.4 °F 33.1 °F 79% 30.26 in 10.0 mi NNW 12.7 mph - N/A   Clear
8:35 AM 40.1 °F 34.1 °F 33.4 °F 77% 30.26 in 10.0 mi NNW 9.2 mph - N/A   Clear
8:55 AM 41.2 °F 35.0 °F 34.3 °F 77% 30.26 in 10.0 mi North 10.4 mph - N/A   Clear
9:15 AM 42.3 °F 35.9 °F 34.7 °F 75% 30.26 in 10.0 mi North 11.5 mph 17.3 mph N/A   Clear
9:35 AM 42.8 °F 37.0 °F 35.6 °F 76% 30.26 in 10.0 mi North 10.4 mph 16.1 mph N/A   Clear
9:55 AM 44.2 °F 37.6 °F 35.6 °F 72% 30.26 in 10.0 mi North 13.8 mph 18.4 mph N/A   Clear
10:15 AM 45.5 °F 40.3 °F 36.1 °F 70% 30.26 in 10.0 mi North 10.4 mph - N/A   Clear
10:35 AM 46.6 °F - 36.1 °F 67% 30.26 in 10.0 mi North 10.4 mph - N/A   Clear
10:55 AM 47.7 °F - 36.9 °F 66% 30.26 in 10.0 mi North 11.5 mph 18.4 mph N/A   Clear
11:15 AM 49.1 °F - 37.4 °F 64% 30.25 in 10.0 mi North 15.0 mph 18.4 mph N/A   Clear
11:35 AM 49.6 °F - 37.0 °F 62% 30.25 in 10.0 mi North 10.4 mph 19.6 mph N/A   Clear
11:55 AM 50.0 °F - 37.4 °F 62% 30.24 in 10.0 mi NNE 12.7 mph 20.7 mph N/A   Clear
12:15 PM 51.1 °F - 37.8 °F 60% 30.23 in 10.0 mi North 17.3 mph - N/A   Clear
12:35 PM 51.3 °F - 37.6 °F 60% 30.22 in 10.0 mi North 15.0 mph 23.0 mph N/A   Clear
12:55 PM 51.8 °F - 37.4 °F 58% 30.21 in 10.0 mi North 12.7 mph 21.9 mph N/A   Clear
1:15 PM 52.5 °F - 38.3 °F 58% 30.21 in 10.0 mi North 13.8 mph 20.7 mph N/A   Scattered Clouds
1:35 PM 53.1 °F - 37.9 °F 57% 30.20 in 10.0 mi North 12.7 mph 23.0 mph N/A   Scattered Clouds
1:55 PM 53.6 °F - 37.8 °F 55% 30.20 in 10.0 mi North 13.8 mph 21.9 mph N/A   Scattered Clouds
2:15 PM 53.1 °F - 36.9 °F 54% 30.19 in 10.0 mi North 15.0 mph 23.0 mph N/A   Clear
2:35 PM 53.4 °F - 37.6 °F 55% 30.19 in 10.0 mi North 16.1 mph 24.2 mph N/A   Clear
2:55 PM 54.0 °F - 36.7 °F 52% 30.19 in 10.0 mi North 16.1 mph 24.2 mph N/A   Clear
3:15 PM 53.4 °F - 36.1 °F 52% 30.18 in 10.0 mi North 15.0 mph 20.7 mph N/A   Clear
3:35 PM 53.6 °F - 36.3 °F 52% 30.18 in 10.0 mi North 15.0 mph 19.6 mph N/A   Clear
3:55 PM 52.9 °F - 36.5 °F 54% 30.18 in 10.0 mi North 17.3 mph 21.9 mph N/A   Clear
4:15 PM 52.3 °F - 36.9 °F 56% 30.18 in 10.0 mi North 17.3 mph 21.9 mph N/A   Clear
4:35 PM 51.6 °F - 36.3 °F 56% 30.19 in 10.0 mi North 16.1 mph 23.0 mph N/A   Clear
4:55 PM 51.1 °F - 36.1 °F 57% 30.19 in 10.0 mi North 12.7 mph 19.6 mph N/A   Clear
5:15 PM 50.2 °F - 36.1 °F 59% 30.19 in 10.0 mi North 12.7 mph 21.9 mph N/A   Clear
5:35 PM 49.6 °F - 35.4 °F 58% 30.20 in 10.0 mi North 16.1 mph 20.7 mph N/A   Clear
5:55 PM 49.1 °F - 36.1 °F 61% 30.20 in 10.0 mi North 10.4 mph - N/A   Clear
6:15 PM 48.2 °F - 36.0 °F 63% 30.20 in 10.0 mi North 8.1 mph - N/A   Clear
6:35 PM 47.7 °F - 36.1 °F 64% 30.21 in 10.0 mi North 6.9 mph - N/A   Clear
6:55 PM 46.8 °F - 36.0 °F 66% 30.21 in 10.0 mi North 8.1 mph - N/A   Clear
7:15 PM 45.9 °F 42.3 °F 36.1 °F 69% 30.20 in 10.0 mi North 6.9 mph - N/A   Clear
7:35 PM 45.7 °F 42.0 °F 36.3 °F 70% 30.20 in 10.0 mi North 6.9 mph - N/A   Clear
7:55 PM 45.9 °F 42.3 °F 35.6 °F 67% 30.19 in 10.0 mi North 6.9 mph - N/A   Clear
8:15 PM 45.5 °F 40.8 °F 34.7 °F 66% 30.19 in 10.0 mi North 9.2 mph - N/A   Clear
8:35 PM 45.1 °F 40.3 °F 33.8 °F 65% 30.19 in 10.0 mi North 9.2 mph - N/A   Clear
8:55 PM 45.0 °F 40.6 °F 33.4 °F 64% 30.20 in 10.0 mi NNW 8.1 mph 16.1 mph N/A   Clear
9:15 PM 44.6 °F 39.2 °F 33.4 °F 65% 30.20 in 10.0 mi NNW 10.4 mph - N/A   Clear
9:35 PM 44.6 °F 39.2 °F 33.8 °F 66% 30.20 in 10.0 mi North 10.4 mph - N/A   Clear
9:55 PM 43.9 °F 38.3 °F 33.1 °F 66% 30.20 in 10.0 mi North 10.4 mph 17.3 mph N/A   Clear
10:15 PM 43.2 °F 37.9 °F 33.6 °F 69% 30.20 in 10.0 mi North 9.2 mph - N/A   Clear
10:35 PM 42.8 °F 38.0 °F 33.4 °F 70% 30.20 in 10.0 mi North 8.1 mph - N/A   Clear
10:55 PM 42.1 °F 37.1 °F 33.8 °F 72% 30.19 in 10.0 mi North 8.1 mph - N/A   Clear
11:15 PM 41.2 °F 36.6 °F 34.0 °F 76% 30.20 in 10.0 mi NNW 6.9 mph - N/A   Clear
11:35 PM 41.0 °F 36.4 °F 33.8 °F 76% 30.20 in 10.0 mi North 6.9 mph - N/A   Clear
11:55 PM 40.6 °F 35.4 °F 34.7 °F 79% 30.20 in 10.0 mi North 8.1 mph - N/A   Clear